Portada
METAR-TAF:

METAR-TAF

Aeropuertos :

Valledupar, Colombia

Aeropuerto Alfonso López Pumarejo

latitud: 10-26N, longitud: 073-15W, altitud: 138 m

Observación

El informe se hizo hace 8 horas y 54 minutos, a las 01:00 UTC
Viento 6 kt del norte-noroeste
Temperatura 25°C
Humedad 94%
Presión 1011 hPa
Visibilidad: 8000 m
Nubes dispersas a una altura de 2000 ft, Cumulonimbus.
Nubes dispersas a una altura de 10000 ft
tormenta, lluvia ligera

METAR: SKVP 230100Z 34006KT 8000 -TSRA SCT020CB SCT100 25/24 A2986

Hora: 04:54 (09:54 UTC)


TAF: falta

Observaciones y pronósticos meteorológicos de más de 4000 aeropuertos (mensajes METAR y TAF).

Los puntos amarillos y rojos representan las estaciones disponibles.

Ponga el ratón en el punto deseado para ver el nombre de la estación.

Haga clic para ver las observaciones y los pronósticos meteorológicos.

Para cambiar el mapa : haga clic en los botones verdes con una cruz de color negro para hacer un zoom, en el botón verde con un guión para alejar o en las flechas verdes para mapas adyacentes.


METAR-TAF: